Backworth, United Kingdom
Current Conditions -  °F | °C
As of 7:20 AM on Wednesday 26 Nov 2014 (Local Time) from EGNT Reporting Station
Light Rain Light Rain  
Wind Chill:   Ceiling: 2000
Heat Index:   Visibility: 4mi
Dew Point:   Wind: 3mph
Humidity: 100%   Direction: 330°NNW
Pressure: 30"   Gusts: NA
Location:  55.04°N, 1.53°W
Report Text: EGNT 260720Z 33003KT 6000 -RA BKN020 04/04 Q1016
Loading
Personal Weather Stations






























Interactive Weather Map New forecast layout! Learn more

10-Day Weather Forecast

Advertisements
Track Severe Weather on mobile